General Aviation Weather

Text Reports

Enter one or more of the following location identifiers separated by a space:

Zip Code, Four-Character ICAO or Three-Character IATA airport codes.

METAR - Aviation Routine Weather Report
KRTN - Raton, New Mexico
Updated at 12:53 AM GMT on March 03, 2015 (5:53 PM MST):
METAR KRTN 030053Z AUTO 00000KT 10SM OVC007 M01/M02 A2984 RMK AO2 SLP116 T10111017
TAF - Terminal Area Forecast
KRTN - Raton, New Mexico
Updated at 12:53 AM GMT on March 03, 2015 (5:53 PM MST):
No TAF is currently available for this location.
Decoded:
No decoded TAF is available.
PIREP - Pilot Weather Report
KRTN - Raton, New Mexico
Updated at 12:53 AM GMT on March 03, 2015 (5:53 PM MST):
No PIREP is currently available for this location.
AIRMET - Airmens Meteorological Information
KRTN - Raton, New Mexico
Updated at 12:53 AM GMT on March 03, 2015 (5:53 PM MST):
No AIRMET is currently available for this location.
SIGMET - Significant Meteorological Information
KRTN - Raton, New Mexico
Updated at 12:53 AM GMT on March 03, 2015 (5:53 PM MST):
No SIGMET is currently available for this location.
NOTAM - Notice to Airmen
KRTN - Raton, New Mexico
Updated at 12:53 AM GMT on March 03, 2015 (5:53 PM MST):
No NOTAM is currently available for this location.
Forecast Area
KRTN - Raton, New Mexico
Updated at 12:53 AM GMT on March 03, 2015 (5:53 PM MST):
No NOTAM is currently available for this location.
Aviation Weather Maps